sensor_id;sensor_type;location;lat;lon;timestamp;P1;durP1;ratioP1;P2;durP2;ratioP2
9559;SDS011;4818;50.860;4.648;2023-04-15T00:00:16;5.07;;;1.50;;
9559;SDS011;4818;50.860;4.648;2023-04-15T00:02:42;3.13;;;1.10;;
9559;SDS011;4818;50.860;4.648;2023-04-15T00:05:09;2.40;;;1.10;;
9559;SDS011;4818;50.860;4.648;2023-04-15T00:07:35;6.88;;;1.40;;
9559;SDS011;4818;50.860;4.648;2023-04-15T00:10:01;6.03;;;1.48;;
9559;SDS011;4818;50.860;4.648;2023-04-15T00:12:28;5.38;;;1.30;;
9559;SDS011;4818;50.860;4.648;2023-04-15T00:14:55;3.63;;;1.02;;
9559;SDS011;4818;50.860;4.648;2023-04-15T00:17:22;3.03;;;0.98;;
9559;SDS011;4818;50.860;4.648;2023-04-15T00:19:49;4.70;;;1.35;;
9559;SDS011;4818;50.860;4.648;2023-04-15T00:22:15;7.20;;;1.70;;
9559;SDS011;4818;50.860;4.648;2023-04-15T00:24:42;2.03;;;0.82;;
9559;SDS011;4818;50.860;4.648;2023-04-15T00:27:08;6.50;;;1.83;;
9559;SDS011;4818;50.860;4.648;2023-04-15T00:29:35;3.88;;;1.30;;
9559;SDS011;4818;50.860;4.648;2023-04-15T00:32:02;6.05;;;1.75;;
9559;SDS011;4818;50.860;4.648;2023-04-15T00:34:28;2.92;;;1.10;;
9559;SDS011;4818;50.860;4.648;2023-04-15T00:36:54;3.70;;;1.40;;
9559;SDS011;4818;50.860;4.648;2023-04-15T00:39:21;5.35;;;1.27;;
9559;SDS011;4818;50.860;4.648;2023-04-15T00:41:47;4.25;;;1.70;;
9559;SDS011;4818;50.860;4.648;2023-04-15T00:44:14;4.00;;;1.20;;
9559;SDS011;4818;50.860;4.648;2023-04-15T00:46:42;8.20;;;2.00;;
9559;SDS011;4818;50.860;4.648;2023-04-15T00:49:10;5.25;;;1.55;;
9559;SDS011;4818;50.860;4.648;2023-04-15T00:51:37;4.22;;;1.58;;
9559;SDS011;4818;50.860;4.648;2023-04-15T00:54:04;8.52;;;1.83;;
9559;SDS011;4818;50.860;4.648;2023-04-15T00:56:33;8.38;;;2.08;;
9559;SDS011;4818;50.860;4.648;2023-04-15T00:59:00;2.85;;;1.40;;
9559;SDS011;4818;50.860;4.648;2023-04-15T01:01:26;6.72;;;1.48;;
9559;SDS011;4818;50.860;4.648;2023-04-15T01:03:54;4.85;;;1.40;;
9559;SDS011;4818;50.860;4.648;2023-04-15T01:06:22;3.60;;;1.30;;
9559;SDS011;4818;50.860;4.648;2023-04-15T01:08:48;3.80;;;1.40;;
9559;SDS011;4818;50.860;4.648;2023-04-15T01:11:15;5.20;;;1.38;;
9559;SDS011;4818;50.860;4.648;2023-04-15T01:13:42;4.80;;;1.30;;
9559;SDS011;4818;50.860;4.648;2023-04-15T01:16:08;4.90;;;1.83;;
9559;SDS011;4818;50.860;4.648;2023-04-15T01:18:35;4.95;;;1.75;;
9559;SDS011;4818;50.860;4.648;2023-04-15T01:21:03;4.78;;;1.95;;
9559;SDS011;4818;50.860;4.648;2023-04-15T01:23:30;7.32;;;2.17;;
9559;SDS011;4818;50.860;4.648;2023-04-15T01:25:57;7.90;;;1.70;;
9559;SDS011;4818;50.860;4.648;2023-04-15T01:28:24;7.72;;;2.03;;
9559;SDS011;4818;50.860;4.648;2023-04-15T01:31:04;3.88;;;2.03;;
9559;SDS011;4818;50.860;4.648;2023-04-15T01:33:31;7.78;;;2.75;;
9559;SDS011;4818;50.860;4.648;2023-04-15T01:35:58;6.35;;;1.65;;
9559;SDS011;4818;50.860;4.648;2023-04-15T01:38:25;5.50;;;2.00;;
9559;SDS011;4818;50.860;4.648;2023-04-15T01:40:52;4.20;;;2.17;;
9559;SDS011;4818;50.860;4.648;2023-04-15T01:43:18;4.55;;;1.73;;
9559;SDS011;4818;50.860;4.648;2023-04-15T01:45:45;4.88;;;2.03;;
9559;SDS011;4818;50.860;4.648;2023-04-15T01:48:11;3.28;;;1.58;;
9559;SDS011;4818;50.860;4.648;2023-04-15T01:50:38;4.25;;;2.53;;
9559;SDS011;4818;50.860;4.648;2023-04-15T01:53:04;2.95;;;1.42;;
9559;SDS011;4818;50.860;4.648;2023-04-15T01:55:31;4.68;;;2.20;;
9559;SDS011;4818;50.860;4.648;2023-04-15T01:57:57;5.60;;;2.47;;
9559;SDS011;4818;50.860;4.648;2023-04-15T02:00:23;5.20;;;2.78;;
9559;SDS011;4818;50.860;4.648;2023-04-15T02:02:49;7.28;;;2.85;;
9559;SDS011;4818;50.860;4.648;2023-04-15T02:05:15;6.35;;;2.85;;
9559;SDS011;4818;50.860;4.648;2023-04-15T02:07:44;6.05;;;2.08;;
9559;SDS011;4818;50.860;4.648;2023-04-15T02:10:11;6.40;;;2.65;;
9559;SDS011;4818;50.860;4.648;2023-04-15T02:12:38;7.13;;;2.70;;
9559;SDS011;4818;50.860;4.648;2023-04-15T02:15:04;5.57;;;2.53;;
9559;SDS011;4818;50.860;4.648;2023-04-15T02:17:34;5.20;;;2.28;;
9559;SDS011;4818;50.860;4.648;2023-04-15T02:20:00;3.95;;;2.30;;
9559;SDS011;4818;50.860;4.648;2023-04-15T02:22:29;5.47;;;1.88;;
9559;SDS011;4818;50.860;4.648;2023-04-15T02:24:55;8.98;;;2.97;;
9559;SDS011;4818;50.860;4.648;2023-04-15T02:27:21;5.85;;;2.75;;
9559;SDS011;4818;50.860;4.648;2023-04-15T02:29:47;8.52;;;2.40;;
9559;SDS011;4818;50.860;4.648;2023-04-15T02:32:15;6.03;;;2.35;;
9559;SDS011;4818;50.860;4.648;2023-04-15T02:34:41;4.00;;;2.60;;
9559;SDS011;4818;50.860;4.648;2023-04-15T02:37:09;3.58;;;2.10;;
9559;SDS011;4818;50.860;4.648;2023-04-15T02:39:35;4.85;;;1.98;;
9559;SDS011;4818;50.860;4.648;2023-04-15T02:42:02;4.32;;;2.20;;
9559;SDS011;4818;50.860;4.648;2023-04-15T02:44:30;4.25;;;1.90;;
9559;SDS011;4818;50.860;4.648;2023-04-15T02:46:57;10.60;;;2.97;;
9559;SDS011;4818;50.860;4.648;2023-04-15T02:49:23;6.82;;;3.40;;
9559;SDS011;4818;50.860;4.648;2023-04-15T02:51:50;4.07;;;2.13;;
9559;SDS011;4818;50.860;4.648;2023-04-15T02:54:20;8.82;;;2.80;;
9559;SDS011;4818;50.860;4.648;2023-04-15T02:56:47;5.85;;;2.47;;
9559;SDS011;4818;50.860;4.648;2023-04-15T02:59:14;3.88;;;1.88;;
9559;SDS011;4818;50.860;4.648;2023-04-15T03:01:40;5.03;;;2.20;;
9559;SDS011;4818;50.860;4.648;2023-04-15T03:04:07;5.72;;;2.67;;
9559;SDS011;4818;50.860;4.648;2023-04-15T03:06:34;4.20;;;2.13;;
9559;SDS011;4818;50.860;4.648;2023-04-15T03:09:00;6.80;;;2.38;;
9559;SDS011;4818;50.860;4.648;2023-04-15T03:11:29;5.97;;;2.50;;
9559;SDS011;4818;50.860;4.648;2023-04-15T03:13:55;3.90;;;2.20;;
9559;SDS011;4818;50.860;4.648;2023-04-15T03:16:23;5.45;;;2.30;;
9559;SDS011;4818;50.860;4.648;2023-04-15T03:18:50;5.72;;;2.53;;
9559;SDS011;4818;50.860;4.648;2023-04-15T03:21:16;5.93;;;2.47;;
9559;SDS011;4818;50.860;4.648;2023-04-15T03:23:44;5.28;;;2.45;;
9559;SDS011;4818;50.860;4.648;2023-04-15T03:26:11;5.97;;;1.75;;
9559;SDS011;4818;50.860;4.648;2023-04-15T03:28:48;5.15;;;2.33;;
9559;SDS011;4818;50.860;4.648;2023-04-15T03:31:14;5.97;;;2.38;;
9559;SDS011;4818;50.860;4.648;2023-04-15T03:33:40;8.57;;;2.67;;
9559;SDS011;4818;50.860;4.648;2023-04-15T03:36:07;7.75;;;2.67;;
9559;SDS011;4818;50.860;4.648;2023-04-15T03:38:33;4.95;;;2.53;;
9559;SDS011;4818;50.860;4.648;2023-04-15T03:41:01;7.03;;;2.47;;
9559;SDS011;4818;50.860;4.648;2023-04-15T03:43:27;6.53;;;2.38;;
9559;SDS011;4818;50.860;4.648;2023-04-15T03:45:53;5.97;;;2.85;;
9559;SDS011;4818;50.860;4.648;2023-04-15T03:48:20;5.38;;;2.38;;
9559;SDS011;4818;50.860;4.648;2023-04-15T03:50:46;4.00;;;2.72;;
9559;SDS011;4818;50.860;4.648;2023-04-15T03:53:12;2.90;;;2.03;;
9559;SDS011;4818;50.860;4.648;2023-04-15T03:55:38;5.93;;;2.92;;
9559;SDS011;4818;50.860;4.648;2023-04-15T03:58:05;6.75;;;2.60;;
9559;SDS011;4818;50.860;4.648;2023-04-15T04:00:31;4.57;;;2.15;;
9559;SDS011;4818;50.860;4.648;2023-04-15T04:02:57;2.90;;;1.80;;
9559;SDS011;4818;50.860;4.648;2023-04-15T04:05:26;6.75;;;2.28;;
9559;SDS011;4818;50.860;4.648;2023-04-15T04:07:52;4.40;;;1.92;;
9559;SDS011;4818;50.860;4.648;2023-04-15T04:10:22;8.45;;;2.88;;
9559;SDS011;4818;50.860;4.648;2023-04-15T04:12:48;5.70;;;2.70;;
9559;SDS011;4818;50.860;4.648;2023-04-15T04:15:14;3.10;;;2.10;;
9559;SDS011;4818;50.860;4.648;2023-04-15T04:17:41;3.80;;;2.50;;
9559;SDS011;4818;50.860;4.648;2023-04-15T04:20:07;9.35;;;3.22;;
9559;SDS011;4818;50.860;4.648;2023-04-15T04:22:40;5.47;;;3.40;;
9559;SDS011;4818;50.860;4.648;2023-04-15T04:25:09;6.18;;;3.67;;
9559;SDS011;4818;50.860;4.648;2023-04-15T04:27:35;7.38;;;3.70;;
9559;SDS011;4818;50.860;4.648;2023-04-15T04:30:02;5.28;;;3.22;;
9559;SDS011;4818;50.860;4.648;2023-04-15T04:32:28;5.00;;;2.72;;
9559;SDS011;4818;50.860;4.648;2023-04-15T04:35:00;6.15;;;3.83;;
9559;SDS011;4818;50.860;4.648;2023-04-15T04:37:27;4.20;;;3.08;;
9559;SDS011;4818;50.860;4.648;2023-04-15T04:39:53;9.02;;;3.53;;
9559;SDS011;4818;50.860;4.648;2023-04-15T04:42:19;6.25;;;4.10;;
9559;SDS011;4818;50.860;4.648;2023-04-15T04:44:45;9.40;;;4.50;;
9559;SDS011;4818;50.860;4.648;2023-04-15T04:47:12;5.57;;;3.38;;
9559;SDS011;4818;50.860;4.648;2023-04-15T04:49:40;5.93;;;4.05;;
9559;SDS011;4818;50.860;4.648;2023-04-15T04:52:07;8.07;;;4.00;;
9559;SDS011;4818;50.860;4.648;2023-04-15T04:54:33;7.28;;;4.10;;
9559;SDS011;4818;50.860;4.648;2023-04-15T04:57:00;5.53;;;3.67;;
9559;SDS011;4818;50.860;4.648;2023-04-15T04:59:27;5.80;;;3.47;;
9559;SDS011;4818;50.860;4.648;2023-04-15T05:01:53;4.68;;;4.10;;
9559;SDS011;4818;50.860;4.648;2023-04-15T05:04:19;8.00;;;4.40;;
9559;SDS011;4818;50.860;4.648;2023-04-15T05:06:45;6.40;;;3.97;;
9559;SDS011;4818;50.860;4.648;2023-04-15T05:09:12;6.22;;;3.45;;
9559;SDS011;4818;50.860;4.648;2023-04-15T05:11:38;5.32;;;3.78;;
9559;SDS011;4818;50.860;4.648;2023-04-15T05:14:04;8.70;;;4.00;;
9559;SDS011;4818;50.860;4.648;2023-04-15T05:16:31;13.48;;;4.55;;
9559;SDS011;4818;50.860;4.648;2023-04-15T05:18:57;6.55;;;4.10;;
9559;SDS011;4818;50.860;4.648;2023-04-15T05:21:23;9.75;;;4.80;;
9559;SDS011;4818;50.860;4.648;2023-04-15T05:23:50;9.40;;;4.60;;
9559;SDS011;4818;50.860;4.648;2023-04-15T05:26:16;9.02;;;4.85;;
9559;SDS011;4818;50.860;4.648;2023-04-15T05:28:42;7.28;;;4.35;;
9559;SDS011;4818;50.860;4.648;2023-04-15T05:31:09;12.02;;;4.43;;
9559;SDS011;4818;50.860;4.648;2023-04-15T05:33:35;6.30;;;3.92;;
9559;SDS011;4818;50.860;4.648;2023-04-15T05:36:02;11.07;;;4.68;;
9559;SDS011;4818;50.860;4.648;2023-04-15T05:38:28;6.68;;;4.18;;
9559;SDS011;4818;50.860;4.648;2023-04-15T05:40:54;10.32;;;4.65;;
9559;SDS011;4818;50.860;4.648;2023-04-15T05:43:21;7.07;;;5.00;;
9559;SDS011;4818;50.860;4.648;2023-04-15T05:45:47;9.82;;;4.70;;
9559;SDS011;4818;50.860;4.648;2023-04-15T05:48:15;14.02;;;4.95;;
9559;SDS011;4818;50.860;4.648;2023-04-15T05:50:42;10.93;;;5.05;;
9559;SDS011;4818;50.860;4.648;2023-04-15T05:53:08;10.45;;;4.28;;
9559;SDS011;4818;50.860;4.648;2023-04-15T05:55:34;9.38;;;4.53;;
9559;SDS011;4818;50.860;4.648;2023-04-15T05:58:01;8.57;;;4.00;;
9559;SDS011;4818;50.860;4.648;2023-04-15T06:00:27;7.55;;;3.45;;
9559;SDS011;4818;50.860;4.648;2023-04-15T06:02:55;7.32;;;3.35;;
9559;SDS011;4818;50.860;4.648;2023-04-15T06:05:22;8.55;;;3.10;;
9559;SDS011;4818;50.860;4.648;2023-04-15T06:07:48;8.70;;;3.13;;
9559;SDS011;4818;50.860;4.648;2023-04-15T06:10:15;10.27;;;3.17;;
9559;SDS011;4818;50.860;4.648;2023-04-15T06:12:41;9.85;;;4.13;;
9559;SDS011;4818;50.860;4.648;2023-04-15T06:15:08;8.38;;;3.55;;
9559;SDS011;4818;50.860;4.648;2023-04-15T06:17:38;12.07;;;3.88;;
9559;SDS011;4818;50.860;4.648;2023-04-15T06:20:05;8.90;;;3.70;;
9559;SDS011;4818;50.860;4.648;2023-04-15T06:22:32;7.68;;;3.80;;
9559;SDS011;4818;50.860;4.648;2023-04-15T06:24:59;11.63;;;3.65;;
9559;SDS011;4818;50.860;4.648;2023-04-15T06:27:25;10.15;;;3.70;;
9559;SDS011;4818;50.860;4.648;2023-04-15T06:29:51;8.63;;;3.25;;
9559;SDS011;4818;50.860;4.648;2023-04-15T06:32:18;6.03;;;3.13;;
9559;SDS011;4818;50.860;4.648;2023-04-15T06:34:44;8.32;;;3.22;;
9559;SDS011;4818;50.860;4.648;2023-04-15T06:37:11;9.48;;;3.58;;
9559;SDS011;4818;50.860;4.648;2023-04-15T06:39:40;9.30;;;4.22;;
9559;SDS011;4818;50.860;4.648;2023-04-15T06:42:07;6.43;;;3.70;;
9559;SDS011;4818;50.860;4.648;2023-04-15T06:44:33;9.38;;;3.50;;
9559;SDS011;4818;50.860;4.648;2023-04-15T06:47:01;6.95;;;3.88;;
9559;SDS011;4818;50.860;4.648;2023-04-15T06:49:27;9.38;;;3.88;;
9559;SDS011;4818;50.860;4.648;2023-04-15T06:51:53;8.27;;;3.47;;
9559;SDS011;4818;50.860;4.648;2023-04-15T06:54:19;8.18;;;3.55;;
9559;SDS011;4818;50.860;4.648;2023-04-15T06:56:46;9.70;;;3.65;;
9559;SDS011;4818;50.860;4.648;2023-04-15T06:59:12;8.65;;;3.58;;
9559;SDS011;4818;50.860;4.648;2023-04-15T07:01:42;7.15;;;3.83;;
9559;SDS011;4818;50.860;4.648;2023-04-15T07:04:08;8.20;;;4.20;;
9559;SDS011;4818;50.860;4.648;2023-04-15T07:06:35;8.57;;;3.13;;
9559;SDS011;4818;50.860;4.648;2023-04-15T07:09:01;6.88;;;3.03;;
9559;SDS011;4818;50.860;4.648;2023-04-15T07:11:29;8.05;;;3.47;;
9559;SDS011;4818;50.860;4.648;2023-04-15T07:13:56;9.57;;;3.85;;
9559;SDS011;4818;50.860;4.648;2023-04-15T07:16:23;9.50;;;3.65;;
9559;SDS011;4818;50.860;4.648;2023-04-15T07:18:49;10.82;;;4.05;;
9559;SDS011;4818;50.860;4.648;2023-04-15T07:21:16;10.07;;;4.40;;
9559;SDS011;4818;50.860;4.648;2023-04-15T07:23:42;7.53;;;3.83;;
9559;SDS011;4818;50.860;4.648;2023-04-15T07:26:08;15.40;;;4.32;;
9559;SDS011;4818;50.860;4.648;2023-04-15T07:28:35;5.90;;;2.83;;
9559;SDS011;4818;50.860;4.648;2023-04-15T07:31:01;9.13;;;3.72;;
9559;SDS011;4818;50.860;4.648;2023-04-15T07:33:27;10.25;;;3.58;;
9559;SDS011;4818;50.860;4.648;2023-04-15T07:35:54;6.90;;;3.40;;
9559;SDS011;4818;50.860;4.648;2023-04-15T07:38:20;6.18;;;2.95;;
9559;SDS011;4818;50.860;4.648;2023-04-15T07:40:49;7.05;;;3.17;;
9559;SDS011;4818;50.860;4.648;2023-04-15T07:43:20;6.32;;;3.00;;
9559;SDS011;4818;50.860;4.648;2023-04-15T07:45:47;6.22;;;3.00;;
9559;SDS011;4818;50.860;4.648;2023-04-15T07:48:15;8.77;;;3.55;;
9559;SDS011;4818;50.860;4.648;2023-04-15T07:50:41;7.32;;;2.90;;
9559;SDS011;4818;50.860;4.648;2023-04-15T07:53:08;8.35;;;3.22;;
9559;SDS011;4818;50.860;4.648;2023-04-15T07:55:34;8.10;;;3.70;;
9559;SDS011;4818;50.860;4.648;2023-04-15T07:58:00;8.30;;;3.53;;
9559;SDS011;4818;50.860;4.648;2023-04-15T08:00:26;8.02;;;3.88;;
9559;SDS011;4818;50.860;4.648;2023-04-15T08:02:55;6.25;;;3.58;;
9559;SDS011;4818;50.860;4.648;2023-04-15T08:05:23;7.33;;;3.23;;
9559;SDS011;4818;50.860;4.648;2023-04-15T08:07:50;8.55;;;3.00;;
9559;SDS011;4818;50.860;4.648;2023-04-15T08:10:16;8.95;;;3.13;;
9559;SDS011;4818;50.860;4.648;2023-04-15T08:12:42;5.63;;;3.45;;
9559;SDS011;4818;50.860;4.648;2023-04-15T08:15:13;7.35;;;3.45;;
9559;SDS011;4818;50.860;4.648;2023-04-15T08:17:39;9.13;;;3.17;;
9559;SDS011;4818;50.860;4.648;2023-04-15T08:20:05;5.22;;;2.47;;
9559;SDS011;4818;50.860;4.648;2023-04-15T08:22:34;10.95;;;3.13;;
9559;SDS011;4818;50.860;4.648;2023-04-15T08:25:01;4.05;;;2.45;;
9559;SDS011;4818;50.860;4.648;2023-04-15T08:27:27;6.68;;;2.90;;
9559;SDS011;4818;50.860;4.648;2023-04-15T08:29:56;5.35;;;2.75;;
9559;SDS011;4818;50.860;4.648;2023-04-15T08:32:22;7.63;;;2.47;;
9559;SDS011;4818;50.860;4.648;2023-04-15T08:34:50;7.97;;;2.50;;
9559;SDS011;4818;50.860;4.648;2023-04-15T08:37:17;8.27;;;3.15;;
9559;SDS011;4818;50.860;4.648;2023-04-15T08:42:16;6.38;;;2.13;;
9559;SDS011;4818;50.860;4.648;2023-04-15T08:44:46;4.47;;;2.47;;
9559;SDS011;4818;50.860;4.648;2023-04-15T08:47:20;5.68;;;2.63;;
9559;SDS011;4818;50.860;4.648;2023-04-15T08:49:46;6.03;;;2.65;;
9559;SDS011;4818;50.860;4.648;2023-04-15T08:52:18;4.60;;;2.83;;
9559;SDS011;4818;50.860;4.648;2023-04-15T08:54:44;6.03;;;2.50;;
9559;SDS011;4818;50.860;4.648;2023-04-15T08:57:11;7.00;;;2.92;;
9559;SDS011;4818;50.860;4.648;2023-04-15T08:59:42;3.95;;;2.90;;
9559;SDS011;4818;50.860;4.648;2023-04-15T09:02:10;6.00;;;2.95;;
9559;SDS011;4818;50.860;4.648;2023-04-15T09:04:36;7.78;;;2.88;;
9559;SDS011;4818;50.860;4.648;2023-04-15T09:07:02;5.43;;;2.67;;
9559;SDS011;4818;50.860;4.648;2023-04-15T09:09:29;5.93;;;3.03;;
9559;SDS011;4818;50.860;4.648;2023-04-15T09:11:55;4.22;;;2.60;;
9559;SDS011;4818;50.860;4.648;2023-04-15T09:14:21;5.50;;;3.38;;
9559;SDS011;4818;50.860;4.648;2023-04-15T09:16:58;7.32;;;3.95;;
9559;SDS011;4818;50.860;4.648;2023-04-15T09:19:25;7.53;;;3.58;;
9559;SDS011;4818;50.860;4.648;2023-04-15T09:21:52;6.00;;;3.78;;
9559;SDS011;4818;50.860;4.648;2023-04-15T09:24:21;8.33;;;4.07;;
9559;SDS011;4818;50.860;4.648;2023-04-15T09:26:47;5.30;;;2.92;;
9559;SDS011;4818;50.860;4.648;2023-04-15T09:29:15;4.07;;;3.37;;
9559;SDS011;4818;50.860;4.648;2023-04-15T09:31:42;3.72;;;2.70;;
9559;SDS011;4818;50.860;4.648;2023-04-15T09:34:09;4.10;;;2.80;;
9559;SDS011;4818;50.860;4.648;2023-04-15T09:36:37;6.18;;;3.63;;
9559;SDS011;4818;50.860;4.648;2023-04-15T09:39:08;5.22;;;2.72;;
9559;SDS011;4818;50.860;4.648;2023-04-15T09:41:35;4.95;;;2.80;;
9559;SDS011;4818;50.860;4.648;2023-04-15T09:44:01;6.22;;;3.03;;
9559;SDS011;4818;50.860;4.648;2023-04-15T09:46:42;6.10;;;3.00;;
9559;SDS011;4818;50.860;4.648;2023-04-15T09:49:14;5.57;;;2.03;;
9559;SDS011;4818;50.860;4.648;2023-04-15T09:51:42;7.82;;;2.67;;
9559;SDS011;4818;50.860;4.648;2023-04-15T09:54:08;3.13;;;2.58;;
9559;SDS011;4818;50.860;4.648;2023-04-15T09:56:35;2.80;;;1.80;;
9559;SDS011;4818;50.860;4.648;2023-04-15T09:59:07;4.50;;;2.25;;
9559;SDS011;4818;50.860;4.648;2023-04-15T10:01:37;4.35;;;1.67;;
9559;SDS011;4818;50.860;4.648;2023-04-15T10:04:03;3.28;;;1.35;;
9559;SDS011;4818;50.860;4.648;2023-04-15T10:06:32;2.75;;;1.40;;
9559;SDS011;4818;50.860;4.648;2023-04-15T10:08:58;3.00;;;1.90;;
9559;SDS011;4818;50.860;4.648;2023-04-15T10:11:28;4.35;;;1.40;;
9559;SDS011;4818;50.860;4.648;2023-04-15T10:19:42;4.25;;;1.55;;
9559;SDS011;4818;50.860;4.648;2023-04-15T10:22:32;3.15;;;0.85;;
9559;SDS011;4818;50.860;4.648;2023-04-15T10:25:01;4.57;;;0.70;;
9559;SDS011;4818;50.860;4.648;2023-04-15T10:27:31;5.65;;;1.05;;
9559;SDS011;4818;50.860;4.648;2023-04-15T10:30:07;2.75;;;1.35;;
9559;SDS011;4818;50.860;4.648;2023-04-15T10:32:51;2.25;;;0.90;;
9559;SDS011;4818;50.860;4.648;2023-04-15T10:35:24;4.03;;;1.45;;
9559;SDS011;4818;50.860;4.648;2023-04-15T10:38:30;3.60;;;1.10;;
9559;SDS011;4818;50.860;4.648;2023-04-15T10:46:42;2.15;;;0.73;;
9559;SDS011;4818;50.860;4.648;2023-04-15T10:49:27;1.10;;;0.73;;
9559;SDS011;4818;50.860;4.648;2023-04-15T10:52:45;2.03;;;0.95;;
9559;SDS011;4818;50.860;4.648;2023-04-15T10:55:47;3.85;;;0.98;;
9559;SDS011;4818;50.860;4.648;2023-04-15T10:58:45;3.67;;;1.75;;
9559;SDS011;4818;50.860;4.648;2023-04-15T11:01:50;3.25;;;1.55;;
9559;SDS011;4818;50.860;4.648;2023-04-15T11:07:20;2.65;;;1.55;;
9559;SDS011;4818;50.860;4.648;2023-04-15T11:10:02;2.67;;;0.60;;
9559;SDS011;4818;50.860;4.648;2023-04-15T11:12:37;1.67;;;1.05;;
9559;SDS011;4818;50.860;4.648;2023-04-15T11:18:48;0.93;;;0.65;;
9559;SDS011;4818;50.860;4.648;2023-04-15T11:24:58;2.83;;;0.88;;
9559;SDS011;4818;50.860;4.648;2023-04-15T11:27:37;1.40;;;0.60;;
9559;SDS011;4818;50.860;4.648;2023-04-15T11:30:17;1.30;;;0.63;;
9559;SDS011;4818;50.860;4.648;2023-04-15T11:32:48;2.55;;;0.90;;
9559;SDS011;4818;50.860;4.648;2023-04-15T11:35:17;1.52;;;1.13;;
9559;SDS011;4818;50.860;4.648;2023-04-15T11:37:53;3.28;;;1.10;;
9559;SDS011;4818;50.860;4.648;2023-04-15T11:44:28;1.50;;;1.00;;
9559;SDS011;4818;50.860;4.648;2023-04-15T11:47:22;2.45;;;1.05;;
9559;SDS011;4818;50.860;4.648;2023-04-15T11:49:48;2.38;;;1.08;;
9559;SDS011;4818;50.860;4.648;2023-04-15T11:52:14;1.30;;;0.80;;
9559;SDS011;4818;50.860;4.648;2023-04-15T11:54:40;1.80;;;1.00;;
9559;SDS011;4818;50.860;4.648;2023-04-15T11:57:07;3.03;;;0.90;;
9559;SDS011;4818;50.860;4.648;2023-04-15T11:59:42;1.70;;;1.10;;
9559;SDS011;4818;50.860;4.648;2023-04-15T12:02:12;2.97;;;1.73;;
9559;SDS011;4818;50.860;4.648;2023-04-15T12:07:14;1.75;;;1.05;;
9559;SDS011;4818;50.860;4.648;2023-04-15T12:09:53;2.33;;;0.90;;
9559;SDS011;4818;50.860;4.648;2023-04-15T12:18:12;1.53;;;0.57;;
9559;SDS011;4818;50.860;4.648;2023-04-15T12:21:31;1.63;;;0.85;;
9559;SDS011;4818;50.860;4.648;2023-04-15T12:24:08;1.33;;;0.65;;
9559;SDS011;4818;50.860;4.648;2023-04-15T12:26:48;2.85;;;0.70;;
9559;SDS011;4818;50.860;4.648;2023-04-15T12:29:16;1.00;;;0.50;;
9559;SDS011;4818;50.860;4.648;2023-04-15T12:35:14;2.35;;;0.93;;
9559;SDS011;4818;50.860;4.648;2023-04-15T12:44:27;0.68;;;0.20;;
9559;SDS011;4818;50.860;4.648;2023-04-15T12:46:54;0.73;;;0.30;;
9559;SDS011;4818;50.860;4.648;2023-04-15T12:49:35;0.65;;;0.28;;
9559;SDS011;4818;50.860;4.648;2023-04-15T12:58:25;1.48;;;0.30;;
9559;SDS011;4818;50.860;4.648;2023-04-15T13:01:35;1.60;;;0.30;;
9559;SDS011;4818;50.860;4.648;2023-04-15T13:04:20;2.05;;;0.32;;
9559;SDS011;4818;50.860;4.648;2023-04-15T13:07:01;1.05;;;0.30;;
9559;SDS011;4818;50.860;4.648;2023-04-15T13:12:36;2.05;;;0.45;;
9559;SDS011;4818;50.860;4.648;2023-04-15T13:18:41;2.03;;;0.50;;
9559;SDS011;4818;50.860;4.648;2023-04-15T13:21:16;1.65;;;0.32;;
9559;SDS011;4818;50.860;4.648;2023-04-15T13:27:09;2.72;;;0.52;;
9559;SDS011;4818;50.860;4.648;2023-04-15T13:29:59;3.08;;;0.40;;
9559;SDS011;4818;50.860;4.648;2023-04-15T13:32:49;4.00;;;0.40;;
9559;SDS011;4818;50.860;4.648;2023-04-15T13:35:19;2.03;;;0.50;;
9559;SDS011;4818;50.860;4.648;2023-04-15T13:37:52;3.95;;;1.02;;
9559;SDS011;4818;50.860;4.648;2023-04-15T13:40:37;2.33;;;0.50;;
9559;SDS011;4818;50.860;4.648;2023-04-15T13:43:15;4.22;;;0.70;;
9559;SDS011;4818;50.860;4.648;2023-04-15T13:46:23;2.63;;;0.50;;
9559;SDS011;4818;50.860;4.648;2023-04-15T13:49:01;2.28;;;0.30;;
9559;SDS011;4818;50.860;4.648;2023-04-15T13:51:52;3.28;;;0.50;;
9559;SDS011;4818;50.860;4.648;2023-04-15T13:54:52;2.13;;;0.52;;
9559;SDS011;4818;50.860;4.648;2023-04-15T13:57:57;2.00;;;1.02;;
9559;SDS011;4818;50.860;4.648;2023-04-15T14:01:02;5.00;;;0.68;;
9559;SDS011;4818;50.860;4.648;2023-04-15T14:04:17;5.10;;;0.77;;
9559;SDS011;4818;50.860;4.648;2023-04-15T14:07:07;1.95;;;0.95;;
9559;SDS011;4818;50.860;4.648;2023-04-15T14:09:55;2.38;;;0.57;;
9559;SDS011;4818;50.860;4.648;2023-04-15T14:12:27;2.40;;;0.50;;
9559;SDS011;4818;50.860;4.648;2023-04-15T14:15:37;5.88;;;0.40;;
9559;SDS011;4818;50.860;4.648;2023-04-15T14:18:12;1.25;;;0.70;;
9559;SDS011;4818;50.860;4.648;2023-04-15T14:20:41;3.33;;;1.05;;
9559;SDS011;4818;50.860;4.648;2023-04-15T14:23:28;2.20;;;0.30;;
9559;SDS011;4818;50.860;4.648;2023-04-15T14:26:33;1.52;;;0.30;;
9559;SDS011;4818;50.860;4.648;2023-04-15T14:29:02;2.10;;;0.28;;
9559;SDS011;4818;50.860;4.648;2023-04-15T14:31:52;1.55;;;0.30;;
9559;SDS011;4818;50.860;4.648;2023-04-15T14:34:45;1.55;;;0.30;;
9559;SDS011;4818;50.860;4.648;2023-04-15T14:37:57;1.38;;;0.40;;
9559;SDS011;4818;50.860;4.648;2023-04-15T14:40:46;5.45;;;0.32;;
9559;SDS011;4818;50.860;4.648;2023-04-15T14:43:21;1.50;;;0.30;;
9559;SDS011;4818;50.860;4.648;2023-04-15T14:45:59;2.38;;;0.28;;
9559;SDS011;4818;50.860;4.648;2023-04-15T14:48:55;2.72;;;0.30;;
9559;SDS011;4818;50.860;4.648;2023-04-15T14:51:46;0.80;;;0.30;;
9559;SDS011;4818;50.860;4.648;2023-04-15T14:54:32;1.35;;;0.30;;
9559;SDS011;4818;50.860;4.648;2023-04-15T14:57:26;0.88;;;0.25;;
9559;SDS011;4818;50.860;4.648;2023-04-15T15:00:02;1.73;;;0.40;;
9559;SDS011;4818;50.860;4.648;2023-04-15T15:02:46;2.05;;;0.40;;
9559;SDS011;4818;50.860;4.648;2023-04-15T15:05:59;1.58;;;0.20;;
9559;SDS011;4818;50.860;4.648;2023-04-15T15:09:00;1.92;;;0.40;;
9559;SDS011;4818;50.860;4.648;2023-04-15T15:11:41;1.30;;;0.40;;
9559;SDS011;4818;50.860;4.648;2023-04-15T15:14:26;1.30;;;0.32;;
9559;SDS011;4818;50.860;4.648;2023-04-15T15:17:21;1.90;;;0.30;;
9559;SDS011;4818;50.860;4.648;2023-04-15T15:22:37;2.90;;;0.30;;
9559;SDS011;4818;50.860;4.648;2023-04-15T15:25:16;1.58;;;0.30;;
9559;SDS011;4818;50.860;4.648;2023-04-15T15:27:47;5.28;;;0.30;;
9559;SDS011;4818;50.860;4.648;2023-04-15T15:30:49;2.22;;;0.35;;
9559;SDS011;4818;50.860;4.648;2023-04-15T15:33:26;2.40;;;0.40;;
9559;SDS011;4818;50.860;4.648;2023-04-15T15:36:17;1.88;;;0.35;;
9559;SDS011;4818;50.860;4.648;2023-04-15T15:39:31;0.85;;;0.40;;
9559;SDS011;4818;50.860;4.648;2023-04-15T15:42:07;2.88;;;0.50;;
9559;SDS011;4818;50.860;4.648;2023-04-15T15:44:45;3.28;;;0.60;;
9559;SDS011;4818;50.860;4.648;2023-04-15T15:47:19;3.28;;;0.45;;
9559;SDS011;4818;50.860;4.648;2023-04-15T15:56:32;2.15;;;0.40;;
9559;SDS011;4818;50.860;4.648;2023-04-15T15:59:02;2.08;;;0.43;;
9559;SDS011;4818;50.860;4.648;2023-04-15T16:04:33;6.18;;;0.80;;
9559;SDS011;4818;50.860;4.648;2023-04-15T16:07:28;1.83;;;0.40;;
9559;SDS011;4818;50.860;4.648;2023-04-15T16:09:58;2.03;;;0.50;;
9559;SDS011;4818;50.860;4.648;2023-04-15T16:12:45;1.60;;;0.47;;
9559;SDS011;4818;50.860;4.648;2023-04-15T16:15:24;2.63;;;0.30;;
9559;SDS011;4818;50.860;4.648;2023-04-15T16:24:45;2.10;;;0.52;;
9559;SDS011;4818;50.860;4.648;2023-04-15T16:27:17;2.25;;;0.60;;
9559;SDS011;4818;50.860;4.648;2023-04-15T16:30:22;0.75;;;0.30;;
9559;SDS011;4818;50.860;4.648;2023-04-15T16:33:19;1.92;;;0.35;;
9559;SDS011;4818;50.860;4.648;2023-04-15T16:36:05;2.53;;;0.20;;
9559;SDS011;4818;50.860;4.648;2023-04-15T16:38:41;0.93;;;0.32;;
9559;SDS011;4818;50.860;4.648;2023-04-15T16:44:12;2.42;;;0.20;;
9559;SDS011;4818;50.860;4.648;2023-04-15T16:46:42;2.78;;;0.20;;
9559;SDS011;4818;50.860;4.648;2023-04-15T16:49:11;0.80;;;0.20;;
9559;SDS011;4818;50.860;4.648;2023-04-15T16:51:58;1.65;;;0.20;;
9559;SDS011;4818;50.860;4.648;2023-04-15T16:57:52;1.27;;;0.30;;
9559;SDS011;4818;50.860;4.648;2023-04-15T17:01:02;3.00;;;0.20;;
9559;SDS011;4818;50.860;4.648;2023-04-15T17:10:25;1.33;;;0.40;;
9559;SDS011;4818;50.860;4.648;2023-04-15T17:13:09;2.08;;;0.28;;
9559;SDS011;4818;50.860;4.648;2023-04-15T17:15:38;2.88;;;0.30;;
9559;SDS011;4818;50.860;4.648;2023-04-15T17:18:16;1.58;;;0.40;;
9559;SDS011;4818;50.860;4.648;2023-04-15T17:21:20;4.47;;;0.50;;